PWSweather.com
Personal Weather Stations
Station Observations
BALTRELAY
Relay, Baltimore, MD 21227

RelayBaltimore, MD 21227

Lat: 39.24588, Lon: -76.719772

Elevation: 221

Station Type: Davis Vantage Pro2 (6153)

http://www.relayweather.com

Latest ConditionsUpdated 4:10:00 AM GMT Saturday, May 23, 2015
Currently Today's Max Today's Min Today's Average
Temperature 59.4°F15.2°C 68.0°F20.0°C 59.4°F15.2°C 63.5°F17.5°C
Dew Point 38.6°F3.7°C 48.2°F9.0°C 38.6°F3.7°C 45.6°F7.6°C
Winds 4.0 mph W6.4 kmh W 7.2 mph NW11.6 kmh NW - 2.6 mph 4.2 kmh
Wind Gusts 6.1 mph9.8 kmh 10.1 mph16.3 kmh - -
Humidity 46% 60% 45% 52%
Pressure 30.20 in1022.7 mb 30.20 in1022.7 mb 30.06 in1017.9 mb -
Hour Temp Dew Point Humidity Winds Wind Gusts Pressure Precip Precip Rate Daily Precip Total
04:10 AM 59.4°F15.2°C 38.6°F3.7°C 46% 4.0 mph W6.4 kmh W 6.1 mph9.8 kmh 30.20 in1022.7 mb - 0.00 in0.0 mm 0.00 in0.0 mm
04:00 AM 60.1°F15.6°C 38.7°F3.7°C 45% 3.0 mph W4.8 kmh W 6.1 mph9.8 kmh 30.20 in1022.7 mb - 0.00 in0.0 mm 0.00 in0.0 mm
03:50 AM 60.5°F15.8°C 39.6°F4.2°C 46% 2.9 mph NW4.7 kmh NW 7.1 mph11.4 kmh 30.19 in1022.4 mb - 0.00 in0.0 mm 0.00 in0.0 mm
03:45 AM 60.8°F16.0°C 40.4°F4.7°C 47% 4.2 mph NW6.8 kmh NW 7.1 mph11.4 kmh 30.18 in1022.0 mb - 0.00 in0.0 mm 0.00 in0.0 mm
03:40 AM 61.1°F16.2°C 40.7°F4.8°C 47% 5.3 mph WNW8.5 kmh WNW 9.1 mph14.6 kmh 30.18 in1022.0 mb - 0.00 in0.0 mm 0.00 in0.0 mm
03:30 AM 61.3°F16.3°C 41.4°F5.2°C 48% 3.8 mph W6.1 kmh W 8.1 mph13.0 kmh 30.18 in1022.0 mb - 0.00 in0.0 mm 0.00 in0.0 mm
03:20 AM 61.7°F16.5°C 42.8°F6.0°C 50% 6.1 mph NW9.8 kmh NW 10.1 mph16.3 kmh 30.17 in1021.7 mb - 0.00 in0.0 mm 0.00 in0.0 mm
03:15 AM 61.7°F16.5°C 43.4°F6.3°C 51% 6.4 mph NW10.3 kmh NW 9.1 mph14.6 kmh 30.16 in1021.3 mb - 0.00 in0.0 mm 0.00 in0.0 mm
03:10 AM 61.7°F16.5°C 44.4°F6.9°C 53% 7.2 mph NW11.6 kmh NW 9.1 mph14.6 kmh 30.16 in1021.3 mb - 0.00 in0.0 mm 0.00 in0.0 mm
03:00 AM 62.1°F16.7°C 45.8°F7.7°C 55% 5.4 mph NW8.7 kmh NW 9.1 mph14.6 kmh 30.16 in1021.3 mb - 0.00 in0.0 mm 0.00 in0.0 mm
02:50 AM 62.6°F17.0°C 46.6°F8.1°C 56% 2.0 mph WNW3.2 kmh WNW 4.0 mph6.4 kmh 30.16 in1021.3 mb - 0.00 in0.0 mm 0.00 in0.0 mm
02:45 AM 62.8°F17.1°C 46.9°F8.3°C 56% 1.6 mph WNW2.6 kmh WNW 6.1 mph9.8 kmh 30.15 in1021.0 mb - 0.00 in0.0 mm 0.00 in0.0 mm
02:40 AM 63.0°F17.2°C 47.0°F8.3°C 56% 1.2 mph WNW1.9 kmh WNW 4.0 mph6.4 kmh 30.15 in1021.0 mb - 0.00 in0.0 mm 0.00 in0.0 mm
02:30 AM 63.0°F17.2°C 47.5°F8.6°C 57% 3.1 mph NW5.0 kmh NW 5.0 mph8.0 kmh 30.14 in1020.7 mb - 0.00 in0.0 mm 0.00 in0.0 mm
02:20 AM 62.2°F16.8°C 47.7°F8.7°C 59% 2.8 mph NW4.5 kmh NW 3.0 mph4.8 kmh 30.13 in1020.3 mb - 0.00 in0.0 mm 0.00 in0.0 mm
02:15 AM 62.3°F16.8°C 48.2°F9.0°C 60% 1.3 mph WNW2.1 kmh WNW 4.0 mph6.4 kmh 30.13 in1020.3 mb - 0.00 in0.0 mm 0.00 in0.0 mm
02:10 AM 62.4°F16.9°C 47.9°F8.8°C 59% 1.2 mph WNW1.9 kmh WNW 3.0 mph4.8 kmh 30.12 in1020.0 mb - 0.00 in0.0 mm 0.00 in0.0 mm
02:00 AM 62.6°F17.0°C 47.6°F8.7°C 58% 1.3 mph W2.1 kmh W 2.0 mph3.2 kmh 30.12 in1020.0 mb - 0.00 in0.0 mm 0.00 in0.0 mm
01:50 AM 63.0°F17.2°C 47.5°F8.6°C 57% 0.7 mph W1.1 kmh W 2.0 mph3.2 kmh 30.11 in1019.6 mb - 0.00 in0.0 mm 0.00 in0.0 mm
01:45 AM 63.4°F17.4°C 47.4°F8.6°C 56% Calm Calm -- 30.11 in1019.6 mb - 0.00 in0.0 mm 0.00 in0.0 mm
01:40 AM 63.5°F17.5°C 47.5°F8.6°C 56% 0.4 mph W0.6 kmh W 1.0 mph1.6 kmh 30.11 in1019.6 mb - 0.00 in0.0 mm 0.00 in0.0 mm
01:30 AM 63.8°F17.7°C 47.4°F8.6°C 55% Calm Calm 1.0 mph1.6 kmh 30.10 in1019.3 mb - 0.00 in0.0 mm 0.00 in0.0 mm
01:20 AM 64.5°F18.1°C 47.5°F8.6°C 54% 0.8 mph W1.3 kmh W 3.0 mph4.8 kmh 30.10 in1019.3 mb - 0.00 in0.0 mm 0.00 in0.0 mm
01:15 AM 65.0°F18.3°C 47.4°F8.6°C 53% 1.6 mph W2.6 kmh W 4.0 mph6.4 kmh 30.09 in1019.0 mb - 0.00 in0.0 mm 0.00 in0.0 mm
01:10 AM 65.4°F18.6°C 47.3°F8.5°C 52% 3.4 mph W5.5 kmh W 5.0 mph8.0 kmh 30.09 in1019.0 mb - 0.00 in0.0 mm 0.00 in0.0 mm
01:00 AM 65.7°F18.7°C 47.1°F8.4°C 51% 2.7 mph W4.3 kmh W 8.1 mph13.0 kmh 30.08 in1018.6 mb - 0.00 in0.0 mm 0.00 in0.0 mm
12:50 AM 65.7°F18.7°C 47.1°F8.4°C 51% 0.1 mph WSW0.2 kmh WSW 2.0 mph3.2 kmh 30.08 in1018.6 mb - 0.00 in0.0 mm 0.00 in0.0 mm
12:45 AM 65.9°F18.8°C 46.7°F8.2°C 50% 0.5 mph WSW0.8 kmh WSW 3.0 mph4.8 kmh 30.08 in1018.6 mb - 0.00 in0.0 mm 0.00 in0.0 mm
12:40 AM 66.1°F18.9°C 46.9°F8.3°C 50% 0.5 mph WSW0.8 kmh WSW 2.0 mph3.2 kmh 30.08 in1018.6 mb - 0.00 in0.0 mm 0.00 in0.0 mm
12:30 AM 66.6°F19.2°C 46.8°F8.2°C 49% 1.6 mph W2.6 kmh W 2.0 mph3.2 kmh 30.07 in1018.3 mb - 0.00 in0.0 mm 0.00 in0.0 mm
12:20 AM 67.3°F19.6°C 46.9°F8.3°C 48% 2.2 mph W3.5 kmh W 5.0 mph8.0 kmh 30.07 in1018.3 mb - 0.00 in0.0 mm 0.00 in0.0 mm
12:15 AM 67.4°F19.7°C 47.0°F8.3°C 48% 4.5 mph W7.2 kmh W 7.1 mph11.4 kmh 30.07 in1018.3 mb - 0.00 in0.0 mm 0.00 in0.0 mm
12:10 AM 67.6°F19.8°C 46.6°F8.1°C 47% 4.3 mph W6.9 kmh W 8.1 mph13.0 kmh 30.06 in1017.9 mb - 0.00 in0.0 mm 0.00 in0.0 mm
12:00 AM 68.0°F20.0°C 47.0°F8.3°C 47% 3.9 mph WNW6.3 kmh WNW 8.1 mph13.0 kmh 30.06 in1017.9 mb - 0.00 in0.0 mm 0.00 in0.0 mm